sensor_id;sensor_type;location;lat;lon;timestamp;P1;durP1;ratioP1;P2;durP2;ratioP2
51515;SDS011;37603;55.614;37.326;2024-01-30T00:05:37;9.9;;;5.2;;
51515;SDS011;37603;55.614;37.326;2024-01-30T00:11:36;15.4;;;10.8;;
51515;SDS011;37603;55.614;37.326;2024-01-30T00:17:35;14.6;;;11.4;;
51515;SDS011;37603;55.614;37.326;2024-01-30T00:23:33;15.7;;;11.1;;
51515;SDS011;37603;55.614;37.326;2024-01-30T00:29:32;15.8;;;11.7;;
51515;SDS011;37603;55.614;37.326;2024-01-30T00:35:30;15.7;;;11.4;;
51515;SDS011;37603;55.614;37.326;2024-01-30T00:41:29;16.4;;;11.9;;
51515;SDS011;37603;55.614;37.326;2024-01-30T00:47:28;12.4;;;5.3;;
51515;SDS011;37603;55.614;37.326;2024-01-30T00:53:27;14.8;;;11.5;;
51515;SDS011;37603;55.614;37.326;2024-01-30T00:59:25;14.2;;;11.4;;
51515;SDS011;37603;55.614;37.326;2024-01-30T01:05:24;14.6;;;11.3;;
51515;SDS011;37603;55.614;37.326;2024-01-30T01:11:23;16.4;;;12.2;;
51515;SDS011;37603;55.614;37.326;2024-01-30T01:17:22;15.3;;;11.6;;
51515;SDS011;37603;55.614;37.326;2024-01-30T01:23:20;11.3;;;5.3;;
51515;SDS011;37603;55.614;37.326;2024-01-30T01:29:19;14.9;;;12.0;;
51515;SDS011;37603;55.614;37.326;2024-01-30T01:35:18;13.9;;;10.9;;
51515;SDS011;37603;55.614;37.326;2024-01-30T01:41:17;9.8;;;5.0;;
51515;SDS011;37603;55.614;37.326;2024-01-30T01:47:15;14.8;;;11.6;;
51515;SDS011;37603;55.614;37.326;2024-01-30T01:53:14;16.4;;;12.1;;
51515;SDS011;37603;55.614;37.326;2024-01-30T01:59:13;16.5;;;12.5;;
51515;SDS011;37603;55.614;37.326;2024-01-30T02:05:12;15.5;;;12.0;;
51515;SDS011;37603;55.614;37.326;2024-01-30T02:11:10;16.4;;;12.6;;
51515;SDS011;37603;55.614;37.326;2024-01-30T02:17:09;15.8;;;12.4;;
51515;SDS011;37603;55.614;37.326;2024-01-30T02:23:08;16.4;;;12.4;;
51515;SDS011;37603;55.614;37.326;2024-01-30T02:29:06;16.6;;;12.7;;
51515;SDS011;37603;55.614;37.326;2024-01-30T02:35:05;17.4;;;12.4;;
51515;SDS011;37603;55.614;37.326;2024-01-30T02:41:04;13.5;;;5.7;;
51515;SDS011;37603;55.614;37.326;2024-01-30T02:47:03;17.2;;;12.7;;
51515;SDS011;37603;55.614;37.326;2024-01-30T02:53:02;18.8;;;13.3;;
51515;SDS011;37603;55.614;37.326;2024-01-30T02:59:00;12.5;;;5.7;;
51515;SDS011;37603;55.614;37.326;2024-01-30T03:04:59;17.3;;;12.4;;
51515;SDS011;37603;55.614;37.326;2024-01-30T03:10:58;18.1;;;13.1;;
51515;SDS011;37603;55.614;37.326;2024-01-30T03:16:56;16.6;;;13.0;;
51515;SDS011;37603;55.614;37.326;2024-01-30T03:22:55;17.0;;;12.7;;
51515;SDS011;37603;55.614;37.326;2024-01-30T03:28:54;16.7;;;12.8;;
51515;SDS011;37603;55.614;37.326;2024-01-30T03:34:53;16.1;;;12.7;;
51515;SDS011;37603;55.614;37.326;2024-01-30T03:46:50;17.6;;;13.1;;
51515;SDS011;37603;55.614;37.326;2024-01-30T03:52:49;16.4;;;12.8;;
51515;SDS011;37603;55.614;37.326;2024-01-30T03:58:48;17.0;;;12.3;;
51515;SDS011;37603;55.614;37.326;2024-01-30T04:04:46;17.2;;;12.1;;
51515;SDS011;37603;55.614;37.326;2024-01-30T04:10:45;16.1;;;11.9;;
51515;SDS011;37603;55.614;37.326;2024-01-30T04:16:44;17.0;;;11.9;;
51515;SDS011;37603;55.614;37.326;2024-01-30T04:22:43;15.4;;;11.9;;
51515;SDS011;37603;55.614;37.326;2024-01-30T04:28:41;14.8;;;11.7;;
51515;SDS011;37603;55.614;37.326;2024-01-30T04:34:40;12.8;;;11.2;;
51515;SDS011;37603;55.614;37.326;2024-01-30T04:40:39;13.8;;;11.5;;
51515;SDS011;37603;55.614;37.326;2024-01-30T04:46:38;14.9;;;12.0;;
51515;SDS011;37603;55.614;37.326;2024-01-30T04:52:36;13.8;;;11.2;;
51515;SDS011;37603;55.614;37.326;2024-01-30T04:58:35;13.5;;;10.7;;
51515;SDS011;37603;55.614;37.326;2024-01-30T05:04:34;13.2;;;10.5;;
51515;SDS011;37603;55.614;37.326;2024-01-30T05:10:33;13.1;;;10.7;;
51515;SDS011;37603;55.614;37.326;2024-01-30T05:16:31;11.9;;;9.7;;
51515;SDS011;37603;55.614;37.326;2024-01-30T05:22:30;12.6;;;9.8;;
51515;SDS011;37603;55.614;37.326;2024-01-30T05:28:29;9.3;;;4.5;;
51515;SDS011;37603;55.614;37.326;2024-01-30T05:34:27;14.3;;;10.1;;
51515;SDS011;37603;55.614;37.326;2024-01-30T05:40:26;12.9;;;10.1;;
51515;SDS011;37603;55.614;37.326;2024-01-30T05:46:25;14.2;;;11.4;;
51515;SDS011;37603;55.614;37.326;2024-01-30T05:52:24;15.0;;;11.7;;
51515;SDS011;37603;55.614;37.326;2024-01-30T05:58:22;14.3;;;10.6;;
51515;SDS011;37603;55.614;37.326;2024-01-30T06:04:21;13.2;;;10.1;;
51515;SDS011;37603;55.614;37.326;2024-01-30T06:10:20;12.2;;;9.6;;
51515;SDS011;37603;55.614;37.326;2024-01-30T06:16:19;13.8;;;10.0;;
51515;SDS011;37603;55.614;37.326;2024-01-30T06:22:18;14.5;;;10.2;;
51515;SDS011;37603;55.614;37.326;2024-01-30T06:28:16;13.4;;;10.2;;
51515;SDS011;37603;55.614;37.326;2024-01-30T06:34:15;14.1;;;9.8;;
51515;SDS011;37603;55.614;37.326;2024-01-30T06:40:14;12.8;;;10.0;;
51515;SDS011;37603;55.614;37.326;2024-01-30T06:46:13;13.6;;;10.2;;
51515;SDS011;37603;55.614;37.326;2024-01-30T06:52:11;13.4;;;9.8;;
51515;SDS011;37603;55.614;37.326;2024-01-30T06:58:10;13.0;;;9.8;;
51515;SDS011;37603;55.614;37.326;2024-01-30T07:04:09;14.0;;;10.9;;
51515;SDS011;37603;55.614;37.326;2024-01-30T07:10:08;13.4;;;10.4;;
51515;SDS011;37603;55.614;37.326;2024-01-30T07:16:07;18.2;;;12.5;;
51515;SDS011;37603;55.614;37.326;2024-01-30T07:22:05;16.2;;;10.8;;
51515;SDS011;37603;55.614;37.326;2024-01-30T07:28:04;16.1;;;11.3;;
51515;SDS011;37603;55.614;37.326;2024-01-30T07:34:03;14.7;;;11.4;;
51515;SDS011;37603;55.614;37.326;2024-01-30T07:40:02;16.1;;;10.9;;
51515;SDS011;37603;55.614;37.326;2024-01-30T07:46:01;13.9;;;10.7;;
51515;SDS011;37603;55.614;37.326;2024-01-30T07:51:59;13.3;;;10.6;;
51515;SDS011;37603;55.614;37.326;2024-01-30T07:57:58;16.6;;;11.5;;
51515;SDS011;37603;55.614;37.326;2024-01-30T08:03:57;15.8;;;11.0;;
51515;SDS011;37603;55.614;37.326;2024-01-30T08:09:56;14.3;;;10.5;;
51515;SDS011;37603;55.614;37.326;2024-01-30T08:15:55;14.5;;;10.9;;
51515;SDS011;37603;55.614;37.326;2024-01-30T08:21:53;13.7;;;10.5;;
51515;SDS011;37603;55.614;37.326;2024-01-30T08:27:52;15.6;;;10.9;;
51515;SDS011;37603;55.614;37.326;2024-01-30T08:33:51;14.9;;;10.8;;
51515;SDS011;37603;55.614;37.326;2024-01-30T08:39:50;14.2;;;10.0;;
51515;SDS011;37603;55.614;37.326;2024-01-30T08:45:49;15.1;;;10.5;;
51515;SDS011;37603;55.614;37.326;2024-01-30T08:57:46;14.8;;;10.8;;
51515;SDS011;37603;55.614;37.326;2024-01-30T09:03:45;18.0;;;11.7;;
51515;SDS011;37603;55.614;37.326;2024-01-30T09:09:44;16.2;;;11.3;;
51515;SDS011;37603;55.614;37.326;2024-01-30T09:15:43;16.8;;;11.5;;
51515;SDS011;37603;55.614;37.326;2024-01-30T09:21:42;17.6;;;11.7;;
51515;SDS011;37603;55.614;37.326;2024-01-30T09:27:41;16.8;;;11.4;;
51515;SDS011;37603;55.614;37.326;2024-01-30T09:33:39;15.6;;;11.7;;
51515;SDS011;37603;55.614;37.326;2024-01-30T09:39:38;16.9;;;12.2;;
51515;SDS011;37603;55.614;37.326;2024-01-30T09:45:37;15.5;;;11.3;;
51515;SDS011;37603;55.614;37.326;2024-01-30T09:51:36;16.3;;;11.5;;
51515;SDS011;37603;55.614;37.326;2024-01-30T09:57:35;18.3;;;12.2;;
51515;SDS011;37603;55.614;37.326;2024-01-30T10:03:34;16.4;;;11.9;;
51515;SDS011;37603;55.614;37.326;2024-01-30T10:09:32;18.9;;;12.4;;
51515;SDS011;37603;55.614;37.326;2024-01-30T10:15:32;16.2;;;11.7;;
51515;SDS011;37603;55.614;37.326;2024-01-30T10:21:30;17.7;;;12.3;;
51515;SDS011;37603;55.614;37.326;2024-01-30T10:27:29;17.0;;;13.1;;
51515;SDS011;37603;55.614;37.326;2024-01-30T10:33:28;17.1;;;11.8;;
51515;SDS011;37603;55.614;37.326;2024-01-30T10:39:28;16.7;;;12.6;;
51515;SDS011;37603;55.614;37.326;2024-01-30T10:45:26;19.6;;;13.2;;
51515;SDS011;37603;55.614;37.326;2024-01-30T10:51:25;21.0;;;13.2;;
51515;SDS011;37603;55.614;37.326;2024-01-30T10:57:23;19.4;;;13.1;;
51515;SDS011;37603;55.614;37.326;2024-01-30T11:03:22;15.9;;;12.2;;
51515;SDS011;37603;55.614;37.326;2024-01-30T11:09:21;17.5;;;13.0;;
51515;SDS011;37603;55.614;37.326;2024-01-30T11:15:20;19.4;;;12.3;;
51515;SDS011;37603;55.614;37.326;2024-01-30T11:21:19;18.8;;;12.4;;
51515;SDS011;37603;55.614;37.326;2024-01-30T11:27:18;18.7;;;12.5;;
51515;SDS011;37603;55.614;37.326;2024-01-30T11:33:26;19.3;;;12.6;;
51515;SDS011;37603;55.614;37.326;2024-01-30T11:39:15;18.4;;;12.5;;
51515;SDS011;37603;55.614;37.326;2024-01-30T11:45:14;17.5;;;12.3;;
51515;SDS011;37603;55.614;37.326;2024-01-30T11:51:13;19.1;;;12.8;;
51515;SDS011;37603;55.614;37.326;2024-01-30T11:57:12;17.2;;;12.2;;
51515;SDS011;37603;55.614;37.326;2024-01-30T12:03:11;17.5;;;12.9;;
51515;SDS011;37603;55.614;37.326;2024-01-30T12:09:09;22.3;;;13.7;;
51515;SDS011;37603;55.614;37.326;2024-01-30T12:15:08;20.0;;;13.4;;
51515;SDS011;37603;55.614;37.326;2024-01-30T12:21:07;20.2;;;13.6;;
51515;SDS011;37603;55.614;37.326;2024-01-30T12:27:06;20.5;;;14.0;;
51515;SDS011;37603;55.614;37.326;2024-01-30T12:33:04;20.4;;;14.4;;
51515;SDS011;37603;55.614;37.326;2024-01-30T12:39:04;19.8;;;13.8;;
51515;SDS011;37603;55.614;37.326;2024-01-30T12:45:02;21.6;;;14.2;;
51515;SDS011;37603;55.614;37.326;2024-01-30T12:51:01;20.1;;;13.8;;
51515;SDS011;37603;55.614;37.326;2024-01-30T12:57:00;20.4;;;13.8;;
51515;SDS011;37603;55.614;37.326;2024-01-30T13:02:59;19.7;;;13.7;;
51515;SDS011;37603;55.614;37.326;2024-01-30T13:08:57;18.4;;;13.8;;
51515;SDS011;37603;55.614;37.326;2024-01-30T13:14:56;20.3;;;14.0;;
51515;SDS011;37603;55.614;37.326;2024-01-30T13:20:55;21.4;;;14.1;;
51515;SDS011;37603;55.614;37.326;2024-01-30T13:26:54;21.7;;;14.3;;
51515;SDS011;37603;55.614;37.326;2024-01-30T13:32:52;20.7;;;14.2;;
51515;SDS011;37603;55.614;37.326;2024-01-30T13:38:51;23.0;;;14.2;;
51515;SDS011;37603;55.614;37.326;2024-01-30T13:44:50;22.4;;;15.5;;
51515;SDS011;37603;55.614;37.326;2024-01-30T13:50:49;23.9;;;14.9;;
51515;SDS011;37603;55.614;37.326;2024-01-30T13:56:48;21.4;;;15.1;;
51515;SDS011;37603;55.614;37.326;2024-01-30T14:02:47;22.0;;;14.6;;
51515;SDS011;37603;55.614;37.326;2024-01-30T14:08:45;22.4;;;14.8;;
51515;SDS011;37603;55.614;37.326;2024-01-30T14:14:44;23.2;;;15.4;;
51515;SDS011;37603;55.614;37.326;2024-01-30T14:20:43;26.1;;;16.3;;
51515;SDS011;37603;55.614;37.326;2024-01-30T14:26:42;23.1;;;15.3;;
51515;SDS011;37603;55.614;37.326;2024-01-30T14:32:40;24.3;;;16.2;;
51515;SDS011;37603;55.614;37.326;2024-01-30T14:38:39;26.0;;;17.2;;
51515;SDS011;37603;55.614;37.326;2024-01-30T14:44:38;27.4;;;16.1;;
51515;SDS011;37603;55.614;37.326;2024-01-30T14:50:37;24.6;;;15.9;;
51515;SDS011;37603;55.614;37.326;2024-01-30T14:56:36;25.1;;;16.0;;
51515;SDS011;37603;55.614;37.326;2024-01-30T15:02:34;28.5;;;17.0;;
51515;SDS011;37603;55.614;37.326;2024-01-30T15:08:33;23.5;;;15.6;;
51515;SDS011;37603;55.614;37.326;2024-01-30T15:14:32;25.6;;;16.0;;
51515;SDS011;37603;55.614;37.326;2024-01-30T15:20:31;25.1;;;15.9;;
51515;SDS011;37603;55.614;37.326;2024-01-30T15:26:30;23.1;;;16.2;;
51515;SDS011;37603;55.614;37.326;2024-01-30T15:32:28;25.1;;;15.9;;
51515;SDS011;37603;55.614;37.326;2024-01-30T15:38:27;26.4;;;16.1;;
51515;SDS011;37603;55.614;37.326;2024-01-30T15:44:26;24.6;;;16.1;;
51515;SDS011;37603;55.614;37.326;2024-01-30T15:50:25;23.3;;;16.2;;
51515;SDS011;37603;55.614;37.326;2024-01-30T15:56:24;24.2;;;16.1;;
51515;SDS011;37603;55.614;37.326;2024-01-30T16:02:23;25.0;;;16.9;;
51515;SDS011;37603;55.614;37.326;2024-01-30T16:08:21;28.8;;;16.9;;
51515;SDS011;37603;55.614;37.326;2024-01-30T16:14:20;27.0;;;17.2;;
51515;SDS011;37603;55.614;37.326;2024-01-30T16:20:19;27.9;;;17.5;;
51515;SDS011;37603;55.614;37.326;2024-01-30T16:26:18;28.0;;;17.3;;
51515;SDS011;37603;55.614;37.326;2024-01-30T16:32:16;29.6;;;18.4;;
51515;SDS011;37603;55.614;37.326;2024-01-30T16:38:15;26.4;;;17.7;;
51515;SDS011;37603;55.614;37.326;2024-01-30T16:44:14;25.4;;;17.9;;
51515;SDS011;37603;55.614;37.326;2024-01-30T16:50:13;25.9;;;17.6;;
51515;SDS011;37603;55.614;37.326;2024-01-30T16:56:11;27.3;;;18.1;;
51515;SDS011;37603;55.614;37.326;2024-01-30T17:02:10;27.0;;;17.3;;
51515;SDS011;37603;55.614;37.326;2024-01-30T17:08:09;26.9;;;17.8;;
51515;SDS011;37603;55.614;37.326;2024-01-30T17:14:08;25.8;;;18.1;;
51515;SDS011;37603;55.614;37.326;2024-01-30T17:20:08;28.8;;;19.0;;
51515;SDS011;37603;55.614;37.326;2024-01-30T17:26:05;27.3;;;18.8;;
51515;SDS011;37603;55.614;37.326;2024-01-30T17:32:04;28.0;;;19.2;;
51515;SDS011;37603;55.614;37.326;2024-01-30T17:38:03;24.7;;;18.1;;
51515;SDS011;37603;55.614;37.326;2024-01-30T17:44:02;28.5;;;18.5;;
51515;SDS011;37603;55.614;37.326;2024-01-30T17:50:01;27.7;;;18.6;;
51515;SDS011;37603;55.614;37.326;2024-01-30T17:55:59;27.2;;;18.2;;
51515;SDS011;37603;55.614;37.326;2024-01-30T18:01:58;25.7;;;19.0;;
51515;SDS011;37603;55.614;37.326;2024-01-30T18:07:57;29.4;;;18.9;;
51515;SDS011;37603;55.614;37.326;2024-01-30T18:13:56;28.9;;;19.5;;
51515;SDS011;37603;55.614;37.326;2024-01-30T18:19:55;29.9;;;19.3;;
51515;SDS011;37603;55.614;37.326;2024-01-30T18:25:53;28.5;;;18.9;;
51515;SDS011;37603;55.614;37.326;2024-01-30T18:31:52;29.3;;;19.4;;
51515;SDS011;37603;55.614;37.326;2024-01-30T18:37:51;28.6;;;19.7;;
51515;SDS011;37603;55.614;37.326;2024-01-30T18:43:50;34.2;;;21.3;;
51515;SDS011;37603;55.614;37.326;2024-01-30T18:49:49;30.0;;;19.8;;
51515;SDS011;37603;55.614;37.326;2024-01-30T18:55:47;27.6;;;18.8;;
51515;SDS011;37603;55.614;37.326;2024-01-30T19:01:46;25.8;;;18.4;;
51515;SDS011;37603;55.614;37.326;2024-01-30T19:07:45;30.0;;;19.3;;
51515;SDS011;37603;55.614;37.326;2024-01-30T19:13:44;27.5;;;19.6;;
51515;SDS011;37603;55.614;37.326;2024-01-30T19:19:42;26.7;;;18.7;;
51515;SDS011;37603;55.614;37.326;2024-01-30T19:25:41;28.7;;;20.2;;
51515;SDS011;37603;55.614;37.326;2024-01-30T19:31:40;28.2;;;19.1;;
51515;SDS011;37603;55.614;37.326;2024-01-30T19:37:39;29.2;;;19.1;;
51515;SDS011;37603;55.614;37.326;2024-01-30T19:43:38;30.0;;;18.9;;
51515;SDS011;37603;55.614;37.326;2024-01-30T19:49:36;26.2;;;18.6;;
51515;SDS011;37603;55.614;37.326;2024-01-30T19:55:35;26.9;;;18.1;;
51515;SDS011;37603;55.614;37.326;2024-01-30T20:01:34;27.4;;;18.1;;
51515;SDS011;37603;55.614;37.326;2024-01-30T20:07:33;26.4;;;19.4;;
51515;SDS011;37603;55.614;37.326;2024-01-30T20:13:31;29.0;;;19.8;;
51515;SDS011;37603;55.614;37.326;2024-01-30T20:19:30;27.0;;;18.2;;
51515;SDS011;37603;55.614;37.326;2024-01-30T20:25:29;23.6;;;17.2;;
51515;SDS011;37603;55.614;37.326;2024-01-30T20:31:28;25.0;;;17.7;;
51515;SDS011;37603;55.614;37.326;2024-01-30T20:37:27;27.8;;;19.3;;
51515;SDS011;37603;55.614;37.326;2024-01-30T20:43:26;25.7;;;18.4;;
51515;SDS011;37603;55.614;37.326;2024-01-30T20:49:24;28.6;;;19.2;;
51515;SDS011;37603;55.614;37.326;2024-01-30T20:55:23;26.7;;;18.7;;
51515;SDS011;37603;55.614;37.326;2024-01-30T21:01:22;27.6;;;19.9;;
51515;SDS011;37603;55.614;37.326;2024-01-30T21:07:21;28.3;;;21.0;;
51515;SDS011;37603;55.614;37.326;2024-01-30T21:13:19;27.3;;;20.0;;
51515;SDS011;37603;55.614;37.326;2024-01-30T21:19:18;27.9;;;19.9;;
51515;SDS011;37603;55.614;37.326;2024-01-30T21:25:17;25.0;;;19.0;;
51515;SDS011;37603;55.614;37.326;2024-01-30T21:31:16;28.6;;;18.8;;
51515;SDS011;37603;55.614;37.326;2024-01-30T21:37:14;26.7;;;18.9;;
51515;SDS011;37603;55.614;37.326;2024-01-30T21:43:13;27.1;;;19.1;;
51515;SDS011;37603;55.614;37.326;2024-01-30T21:49:12;27.2;;;19.5;;
51515;SDS011;37603;55.614;37.326;2024-01-30T21:55:11;25.3;;;19.1;;
51515;SDS011;37603;55.614;37.326;2024-01-30T22:01:09;25.4;;;18.9;;
51515;SDS011;37603;55.614;37.326;2024-01-30T22:07:08;25.5;;;18.6;;
51515;SDS011;37603;55.614;37.326;2024-01-30T22:13:07;26.7;;;18.8;;
51515;SDS011;37603;55.614;37.326;2024-01-30T22:19:06;26.9;;;18.7;;
51515;SDS011;37603;55.614;37.326;2024-01-30T22:25:05;26.5;;;19.6;;
51515;SDS011;37603;55.614;37.326;2024-01-30T22:31:03;26.6;;;19.5;;
51515;SDS011;37603;55.614;37.326;2024-01-30T22:37:02;28.6;;;20.1;;
51515;SDS011;37603;55.614;37.326;2024-01-30T22:43:01;26.8;;;19.3;;
51515;SDS011;37603;55.614;37.326;2024-01-30T22:49:00;30.6;;;20.6;;
51515;SDS011;37603;55.614;37.326;2024-01-30T22:54:58;28.1;;;20.7;;
51515;SDS011;37603;55.614;37.326;2024-01-30T23:00:57;30.1;;;20.4;;
51515;SDS011;37603;55.614;37.326;2024-01-30T23:06:56;30.6;;;21.1;;
51515;SDS011;37603;55.614;37.326;2024-01-30T23:12:55;31.9;;;22.1;;
51515;SDS011;37603;55.614;37.326;2024-01-30T23:18:54;33.3;;;23.4;;
51515;SDS011;37603;55.614;37.326;2024-01-30T23:24:52;34.3;;;24.1;;
51515;SDS011;37603;55.614;37.326;2024-01-30T23:30:51;34.1;;;24.1;;
51515;SDS011;37603;55.614;37.326;2024-01-30T23:36:50;31.0;;;22.8;;
51515;SDS011;37603;55.614;37.326;2024-01-30T23:42:49;33.3;;;23.8;;
51515;SDS011;37603;55.614;37.326;2024-01-30T23:48:47;32.7;;;23.6;;
51515;SDS011;37603;55.614;37.326;2024-01-30T23:54:46;31.0;;;22.9;;
